createdAt,value
2018-02-17T00:01:08.411Z,19.30
2018-02-17T00:04:14.901Z,18.50
2018-02-17T00:07:20.951Z,20.10
2018-02-17T00:10:26.024Z,22.10
2018-02-17T00:13:31.691Z,24.37
2018-02-17T00:16:37.204Z,22.27
2018-02-17T00:19:42.104Z,23.47
2018-02-17T00:22:47.867Z,21.13
2018-02-17T00:25:54.202Z,22.17
2018-02-17T00:28:59.119Z,22.47
2018-02-17T00:32:04.360Z,19.77
2018-02-17T00:35:09.835Z,23.07
2018-02-17T00:38:15.550Z,23.47
2018-02-17T00:41:20.286Z,20.50
2018-02-17T00:44:25.818Z,19.77
2018-02-17T00:47:30.727Z,20.80
2018-02-17T00:50:36.630Z,18.90
2018-02-17T00:53:41.670Z,21.43
2018-02-17T00:56:47.267Z,23.20
2018-02-17T00:59:52.944Z,25.63
2018-02-17T01:02:58.831Z,28.93
2018-02-17T01:06:04.466Z,24.53
2018-02-17T01:09:09.540Z,27.87
2018-02-17T01:12:15.163Z,24.20
2018-02-17T01:15:20.683Z,22.53
2018-02-17T01:18:26.899Z,27.30
2018-02-17T01:21:32.223Z,20.57
2018-02-17T01:24:37.783Z,21.50
2018-02-17T01:27:42.752Z,24.53
2018-02-17T01:30:48.151Z,25.90
2018-02-17T01:33:53.755Z,31.23
2018-02-17T01:36:59.308Z,21.97
2018-02-17T01:40:04.535Z,27.93
2018-02-17T01:43:10.004Z,23.00
2018-02-17T01:46:15.838Z,26.07
2018-02-17T01:49:21.180Z,27.63
2018-02-17T01:52:26.463Z,31.80
2018-02-17T01:55:32.187Z,27.37
2018-02-17T01:58:37.972Z,25.93
2018-02-17T02:01:42.862Z,24.40
2018-02-17T02:04:48.627Z,30.03
2018-02-17T02:07:53.540Z,30.67
2018-02-17T02:10:59.187Z,39.63
2018-02-17T02:14:04.862Z,29.30
2018-02-17T02:17:10.458Z,29.97
2018-02-17T02:20:16.419Z,36.87
2018-02-17T02:23:22.099Z,29.40
2018-02-17T02:26:27.379Z,30.23
2018-02-17T02:29:32.174Z,31.57
2018-02-17T02:32:38.375Z,27.37
2018-02-17T02:35:43.952Z,21.63
2018-02-17T02:38:49.780Z,32.23
2018-02-17T02:41:55.304Z,31.20
2018-02-17T02:45:00.431Z,23.90
2018-02-17T02:48:05.623Z,31.33
2018-02-17T02:51:11.563Z,34.53
2018-02-17T02:54:16.452Z,31.67
2018-02-17T02:57:23.912Z,34.30
2018-02-17T03:00:31.559Z,28.37
2018-02-17T03:03:37.151Z,32.07
2018-02-17T03:06:42.431Z,33.40
2018-02-17T03:09:48.622Z,37.23
2018-02-17T03:12:54.758Z,33.83
2018-02-17T03:16:00.131Z,41.27
2018-02-17T03:19:05.056Z,40.93
2018-02-17T03:22:10.760Z,37.20
2018-02-17T03:25:15.771Z,43.33
2018-02-17T03:28:21.271Z,45.93
2018-02-17T03:31:26.500Z,51.53
2018-02-17T03:34:31.483Z,52.93
2018-02-17T03:37:36.456Z,53.80
2018-02-17T03:40:41.346Z,52.43
2018-02-17T03:43:47.639Z,45.60
2018-02-17T03:46:52.891Z,48.83
2018-02-17T03:49:58.427Z,54.53
2018-02-17T03:53:03.582Z,48.97
2018-02-17T03:56:09.003Z,50.63
2018-02-17T03:59:14.399Z,55.50
2018-02-17T04:02:20.434Z,56.70
2018-02-17T04:05:26.172Z,57.70
2018-02-17T04:08:31.610Z,46.07
2018-02-17T04:11:37.415Z,57.53
2018-02-17T04:14:43.071Z,46.03
2018-02-17T04:17:48.333Z,54.80
2018-02-17T04:20:53.975Z,44.87
2018-02-17T04:23:59.749Z,45.60
2018-02-17T04:27:04.939Z,41.83
2018-02-17T04:30:11.044Z,48.23
2018-02-17T04:33:16.714Z,45.40
2018-02-17T04:36:21.999Z,46.90
2018-02-17T04:39:28.352Z,46.43
2018-02-17T04:42:36.480Z,49.00
2018-02-17T04:45:42.547Z,47.57
2018-02-17T04:48:47.956Z,46.70
2018-02-17T04:51:54.546Z,44.90
2018-02-17T04:55:15.894Z,45.17
2018-02-17T04:58:26.971Z,43.70
2018-02-17T05:01:38.511Z,46.57
2018-02-17T05:04:45.093Z,42.80
2018-02-17T05:07:56.435Z,45.80
2018-02-17T05:11:01.524Z,48.03
2018-02-17T05:14:23.139Z,45.20
2018-02-17T05:17:34.347Z,46.00
2018-02-17T05:20:42.886Z,41.03
2018-02-17T05:23:49.286Z,43.07
2018-02-17T05:30:33.692Z,49.67
2018-02-17T05:33:41.535Z,49.40
2018-02-17T05:36:49.854Z,38.17
2018-02-17T05:43:40.598Z,37.30
2018-02-17T05:46:47.650Z,42.73
2018-02-17T05:49:54.726Z,44.60
2018-02-17T05:53:04.663Z,45.30
2018-02-17T05:56:10.512Z,45.30
2018-02-17T05:59:16.243Z,38.90
2018-02-17T06:02:21.067Z,43.30
2018-02-17T06:05:26.262Z,43.20
2018-02-17T06:08:31.907Z,46.20
2018-02-17T06:11:44.203Z,44.67
2018-02-17T06:14:49.559Z,41.53
2018-02-17T06:17:54.619Z,43.33
2018-02-17T06:20:59.691Z,40.90
2018-02-17T06:24:05.270Z,40.37
2018-02-17T06:27:10.907Z,38.27
2018-02-17T06:30:16.111Z,49.50
2018-02-17T06:33:21.319Z,41.10
2018-02-17T06:36:26.867Z,41.73
2018-02-17T06:39:32.132Z,42.33
2018-02-17T06:42:37.982Z,45.47
2018-02-17T06:45:43.266Z,42.20
2018-02-17T06:48:48.531Z,45.67
2018-02-17T06:51:54.811Z,40.27
2018-02-17T06:55:00.435Z,42.83
2018-02-17T06:58:05.720Z,44.83
2018-02-17T07:01:10.783Z,50.60
2018-02-17T07:04:15.683Z,46.73
2018-02-17T07:07:21.380Z,45.57
2018-02-17T07:10:26.323Z,44.87
2018-02-17T07:13:31.896Z,41.50
2018-02-17T07:16:36.699Z,46.47
2018-02-17T07:19:42.808Z,42.70
2018-02-17T07:22:48.142Z,57.40
2018-02-17T07:25:53.799Z,46.50
2018-02-17T07:28:59.210Z,58.97
2018-02-17T07:32:04.871Z,57.70
2018-02-17T07:35:10.023Z,52.60
2018-02-17T07:38:15.768Z,65.80
2018-02-17T07:41:21.096Z,58.70
2018-02-17T07:44:26.883Z,60.47
2018-02-17T07:47:31.648Z,66.93
2018-02-17T07:50:37.312Z,69.50
2018-02-17T07:53:43.052Z,65.47
2018-02-17T07:56:47.916Z,73.20
2018-02-17T07:59:53.270Z,80.17
2018-02-17T08:02:58.948Z,79.13
2018-02-17T08:06:03.907Z,85.57
2018-02-17T08:09:08.756Z,89.87
2018-02-17T08:12:13.996Z,106.67
2018-02-17T08:15:19.495Z,79.73
2018-02-17T08:18:25.238Z,84.83
2018-02-17T08:21:31.930Z,94.90
2018-02-17T08:24:37.560Z,91.97
2018-02-17T08:27:42.354Z,92.17
2018-02-17T08:30:48.134Z,98.30
2018-02-17T08:33:53.522Z,95.83
2018-02-17T08:36:58.464Z,99.40
2018-02-17T08:40:04.215Z,80.57
2018-02-17T08:43:09.943Z,69.27
2018-02-17T08:46:15.135Z,77.57
2018-02-17T08:49:20.494Z,81.73
2018-02-17T08:52:26.962Z,71.17
2018-02-17T08:55:31.856Z,69.90
2018-02-17T08:58:37.155Z,66.10
2018-02-17T09:01:43.454Z,62.83
2018-02-17T09:04:48.387Z,57.97
2018-02-17T09:07:53.839Z,57.77
2018-02-17T09:11:05.370Z,64.97
2018-02-17T09:14:10.763Z,58.20
2018-02-17T09:17:16.299Z,54.70
2018-02-17T09:20:21.643Z,51.23
2018-02-17T09:23:27.638Z,51.13
2018-02-17T09:26:33.387Z,44.10
2018-02-17T09:29:38.260Z,42.90
2018-02-17T09:32:43.190Z,43.00
2018-02-17T09:35:48.054Z,43.73
2018-02-17T09:38:53.568Z,48.37
2018-02-17T09:41:58.801Z,42.67
2018-02-17T09:45:05.234Z,40.63
2018-02-17T09:48:11.035Z,49.97
2018-02-17T09:51:16.719Z,51.73
2018-02-17T09:54:22.271Z,49.37
2018-02-17T09:57:27.736Z,50.13
2018-02-17T10:00:33.434Z,41.23
2018-02-17T10:03:39.186Z,44.77
2018-02-17T10:06:44.655Z,42.47
2018-02-17T10:09:49.574Z,39.90
2018-02-17T10:12:54.627Z,40.13
2018-02-17T10:16:00.001Z,41.83
2018-02-17T10:19:04.930Z,40.67
2018-02-17T10:22:10.416Z,37.83
2018-02-17T10:25:16.907Z,43.63
2018-02-17T10:28:22.977Z,45.00
2018-02-17T10:31:28.307Z,54.33
2018-02-17T10:34:33.843Z,49.03
2018-02-17T10:37:38.739Z,53.93
2018-02-17T10:40:44.621Z,62.00
2018-02-17T10:43:50.424Z,54.30
2018-02-17T10:46:55.503Z,62.40
2018-02-17T10:50:01.467Z,63.53
2018-02-17T10:53:07.507Z,67.90
2018-02-17T10:56:12.596Z,65.63
2018-02-17T10:59:18.111Z,64.27
2018-02-17T11:02:23.702Z,69.87
2018-02-17T11:05:28.606Z,87.60
2018-02-17T11:08:34.275Z,70.10
2018-02-17T11:11:40.059Z,69.77
2018-02-17T11:14:45.676Z,62.73
2018-02-17T11:17:51.111Z,64.73
2018-02-17T11:20:56.156Z,53.23
2018-02-17T11:24:01.195Z,48.53
2018-02-17T11:27:06.483Z,57.03
2018-02-17T11:30:13.671Z,61.03
2018-02-17T11:33:19.043Z,48.03
2018-02-17T11:36:24.491Z,49.60
2018-02-17T11:39:30.664Z,49.60
2018-02-17T11:42:36.403Z,53.23
2018-02-17T11:45:41.334Z,53.03
2018-02-17T11:48:46.777Z,47.50
2018-02-17T11:51:52.260Z,46.03
2018-02-17T11:54:57.535Z,57.07
2018-02-17T11:58:03.366Z,59.93
2018-02-17T12:01:08.536Z,53.43
2018-02-17T12:04:14.343Z,54.13
2018-02-17T12:07:19.563Z,45.30
2018-02-17T12:10:24.556Z,44.20
2018-02-17T12:13:29.420Z,37.03
2018-02-17T12:16:34.602Z,35.03
2018-02-17T12:19:40.031Z,34.63
2018-02-17T12:22:45.932Z,35.20
2018-02-17T12:25:51.413Z,38.50
2018-02-17T12:28:56.968Z,35.00
2018-02-17T12:32:02.406Z,37.60
2018-02-17T12:35:08.002Z,46.10
2018-02-17T12:38:13.279Z,40.87
2018-02-17T12:41:19.871Z,43.40
2018-02-17T12:44:24.619Z,37.20
2018-02-17T12:47:30.475Z,37.43
2018-02-17T12:50:36.028Z,39.13
2018-02-17T12:53:41.711Z,35.70
2018-02-17T12:56:47.489Z,33.07
2018-02-17T12:59:52.783Z,31.77
2018-02-17T13:02:58.206Z,35.37
2018-02-17T13:06:03.976Z,31.73
2018-02-17T13:09:09.364Z,32.10
2018-02-17T13:12:15.031Z,36.70
2018-02-17T13:15:20.543Z,32.50
2018-02-17T13:18:25.368Z,34.37
2018-02-17T13:21:30.399Z,37.23
2018-02-17T13:24:35.836Z,37.73
2018-02-17T13:27:40.977Z,27.53
2018-02-17T13:30:47.279Z,32.67
2018-02-17T13:33:53.223Z,30.23
2018-02-17T13:36:58.296Z,28.17
2018-02-17T13:40:03.463Z,30.80
2018-02-17T13:43:08.696Z,27.70
2018-02-17T13:46:15.071Z,27.33
2018-02-17T13:49:20.480Z,28.93
2018-02-17T13:52:25.703Z,31.83
2018-02-17T13:55:31.050Z,36.67
2018-02-17T13:58:36.935Z,38.47
2018-02-17T14:01:42.807Z,38.57
2018-02-17T14:04:47.439Z,40.57
2018-02-17T14:07:53.203Z,37.70
2018-02-17T14:10:58.219Z,37.63
2018-02-17T14:14:04.175Z,37.70
2018-02-17T14:17:09.523Z,35.73
2018-02-17T14:20:14.715Z,39.57
2018-02-17T14:23:19.831Z,48.10
2018-02-17T14:26:25.524Z,45.53
2018-02-17T14:29:31.093Z,48.20
2018-02-17T14:32:36.357Z,47.07
2018-02-17T14:35:42.127Z,46.80
2018-02-17T14:38:47.072Z,67.27
2018-02-17T14:41:52.087Z,47.97
2018-02-17T14:44:57.751Z,47.30
2018-02-17T14:48:03.764Z,42.43
2018-02-17T14:51:10.003Z,49.93
2018-02-17T14:54:15.727Z,57.03
2018-02-17T14:57:23.199Z,56.57
2018-02-17T15:00:28.886Z,54.20
2018-02-17T15:03:34.522Z,55.17
2018-02-17T15:06:39.979Z,50.63
2018-02-17T15:09:46.075Z,51.23
2018-02-17T15:12:51.523Z,58.13
2018-02-17T15:15:57.247Z,52.90
2018-02-17T15:19:02.889Z,44.50
2018-02-17T15:22:08.248Z,53.10
2018-02-17T15:25:13.618Z,53.97
2018-02-17T15:28:18.955Z,48.27
2018-02-17T15:31:23.912Z,59.20
2018-02-17T15:34:29.270Z,61.37
2018-02-17T15:37:34.552Z,48.60
2018-02-17T15:40:40.594Z,53.80
2018-02-17T15:43:46.060Z,50.90
2018-02-17T15:46:51.227Z,48.73
2018-02-17T15:49:56.875Z,50.07
2018-02-17T15:53:02.463Z,46.07
2018-02-17T15:56:08.520Z,44.77
2018-02-17T15:59:13.783Z,47.70
2018-02-17T16:02:18.835Z,50.23
2018-02-17T16:05:24.912Z,48.07
2018-02-17T16:08:29.940Z,50.77
2018-02-17T16:11:36.151Z,49.20
2018-02-17T16:14:41.116Z,46.27
2018-02-17T16:17:46.532Z,58.13
2018-02-17T16:20:52.295Z,59.50
2018-02-17T16:23:57.248Z,60.37
2018-02-17T16:27:02.340Z,53.27
2018-02-17T16:30:07.656Z,57.53
2018-02-17T16:33:13.267Z,49.50
2018-02-17T16:36:18.957Z,49.67
2018-02-17T16:39:24.543Z,51.13
2018-02-17T16:42:29.591Z,50.67
2018-02-17T16:45:34.918Z,56.37
2018-02-17T16:48:40.727Z,46.37
2018-02-17T16:51:46.519Z,50.43
2018-02-17T16:54:51.643Z,51.43
2018-02-17T16:57:57.403Z,47.07
2018-02-17T17:01:03.034Z,48.87
2018-02-17T17:04:08.593Z,43.23
2018-02-17T17:07:14.599Z,44.00
2018-02-17T17:10:19.931Z,49.03
2018-02-17T17:13:25.531Z,47.90
2018-02-17T17:16:31.170Z,49.47
2018-02-17T17:19:36.566Z,48.13
2018-02-17T17:22:42.303Z,45.20
2018-02-17T17:25:47.403Z,48.37
2018-02-17T17:28:52.299Z,48.63
2018-02-17T17:31:57.261Z,55.00
2018-02-17T17:35:03.449Z,41.80
2018-02-17T17:38:08.922Z,41.27
2018-02-17T17:41:13.975Z,40.10
2018-02-17T17:44:19.391Z,34.13
2018-02-17T17:47:24.551Z,38.40
2018-02-17T17:50:30.062Z,42.13
2018-02-17T17:53:34.871Z,43.30
2018-02-17T17:56:39.887Z,36.77
2018-02-17T17:59:46.247Z,35.83
2018-02-17T18:02:51.083Z,33.47
2018-02-17T18:05:56.551Z,32.23
2018-02-17T18:09:02.040Z,28.70
2018-02-17T18:12:07.908Z,31.43
2018-02-17T18:15:14.575Z,29.93
2018-02-17T18:18:20.363Z,35.17
2018-02-17T18:21:25.620Z,34.97
2018-02-17T18:24:31.787Z,38.90
2018-02-17T18:27:37.310Z,37.30
2018-02-17T18:30:42.551Z,41.50
2018-02-17T18:33:47.975Z,41.47
2018-02-17T18:36:53.958Z,43.07
2018-02-17T18:39:59.419Z,36.53
2018-02-17T18:43:04.819Z,33.23
2018-02-17T18:46:10.963Z,34.17
2018-02-17T18:49:16.340Z,33.80
2018-02-17T18:52:22.435Z,35.73
2018-02-17T18:55:27.574Z,38.47
2018-02-17T18:58:33.191Z,37.87
2018-02-17T19:01:38.537Z,38.70
2018-02-17T19:04:43.888Z,38.23
2018-02-17T19:07:49.416Z,32.53
2018-02-17T19:10:55.588Z,32.90
2018-02-17T19:14:02.051Z,38.03
2018-02-17T19:17:07.503Z,34.70
2018-02-17T19:20:13.296Z,38.67
2018-02-17T19:23:18.458Z,35.57
2018-02-17T19:26:23.667Z,36.30
2018-02-17T19:29:28.952Z,31.17
2018-02-17T19:32:34.518Z,39.00
2018-02-17T19:35:40.407Z,40.03
2018-02-17T19:38:45.795Z,37.50
2018-02-17T19:41:51.439Z,44.47
2018-02-17T19:44:56.311Z,39.40
2018-02-17T19:48:01.719Z,40.80
2018-02-17T19:51:07.552Z,40.07
2018-02-17T19:54:13.199Z,36.33
2018-02-17T19:57:18.287Z,41.60
2018-02-17T20:00:23.947Z,32.57
2018-02-17T20:03:29.799Z,45.23
2018-02-17T20:06:36.571Z,44.97
2018-02-17T20:09:41.646Z,44.30
2018-02-17T20:12:47.423Z,38.60
2018-02-17T20:15:53.348Z,41.60
2018-02-17T20:18:59.272Z,39.77
2018-02-17T20:22:04.153Z,44.90
2018-02-17T20:25:09.216Z,52.00
2018-02-17T20:28:14.304Z,53.17
2018-02-17T20:31:19.968Z,45.50
2018-02-17T20:34:24.902Z,57.53
2018-02-17T20:37:30.500Z,45.27
2018-02-17T20:40:36.583Z,45.63
2018-02-17T20:43:41.984Z,47.30
2018-02-17T20:46:48.232Z,49.20
2018-02-17T20:49:53.482Z,46.17
2018-02-17T20:52:59.191Z,41.47
2018-02-17T20:56:05.540Z,48.90
2018-02-17T20:59:10.655Z,44.13
2018-02-17T21:02:15.912Z,44.20
2018-02-17T21:05:20.748Z,46.80
2018-02-17T21:08:26.151Z,43.30
2018-02-17T21:11:31.779Z,45.77
2018-02-17T21:14:37.303Z,47.90
2018-02-17T21:17:42.308Z,43.27
2018-02-17T21:20:47.240Z,46.83
2018-02-17T21:23:52.347Z,46.90
2018-02-17T21:27:01.344Z,44.47
2018-02-17T21:30:06.477Z,40.03
2018-02-17T21:33:13.067Z,45.93
2018-02-17T21:36:18.100Z,50.07
2018-02-17T21:39:23.405Z,43.20
2018-02-17T21:42:31.732Z,46.50
2018-02-17T21:45:36.828Z,47.37
2018-02-17T21:48:57.026Z,44.37
2018-02-17T21:52:02.296Z,40.13
2018-02-17T21:55:08.120Z,43.40
2018-02-17T21:58:26.627Z,45.83
2018-02-17T22:01:32.179Z,54.23
2018-02-17T22:04:37.571Z,42.60
2018-02-17T22:07:43.188Z,46.77
2018-02-17T22:10:48.127Z,39.00
2018-02-17T22:13:53.052Z,42.27
2018-02-17T22:16:58.061Z,42.23
2018-02-17T22:20:03.873Z,41.57
2018-02-17T22:23:08.829Z,43.50
2018-02-17T22:26:13.752Z,49.23
2018-02-17T22:29:18.868Z,46.87
2018-02-17T22:32:24.531Z,41.57
2018-02-17T22:35:29.855Z,43.17
2018-02-17T22:38:35.535Z,47.70
2018-02-17T22:41:41.382Z,41.40
2018-02-17T22:44:46.337Z,48.90
2018-02-17T22:47:51.558Z,47.70
2018-02-17T22:50:58.005Z,45.47
2018-02-17T22:54:03.547Z,44.87
2018-02-17T22:57:12.488Z,48.77
2018-02-17T23:00:18.027Z,35.50
2018-02-17T23:03:23.420Z,40.90
2018-02-17T23:06:29.668Z,39.40
2018-02-17T23:09:36.248Z,45.17
2018-02-17T23:12:41.164Z,44.67
2018-02-17T23:15:47.032Z,44.23
2018-02-17T23:18:51.966Z,42.60
2018-02-17T23:21:57.342Z,42.93
2018-02-17T23:25:02.993Z,41.33
2018-02-17T23:28:12.884Z,42.37
2018-02-17T23:31:18.756Z,39.20
2018-02-17T23:34:24.367Z,45.87
2018-02-17T23:37:29.907Z,39.60
2018-02-17T23:40:35.671Z,36.90
2018-02-17T23:43:42.099Z,39.00
2018-02-17T23:46:48.586Z,42.70
2018-02-17T23:49:54.572Z,41.27
2018-02-17T23:53:00.094Z,44.67
2018-02-17T23:56:05.626Z,37.73
2018-02-17T23:59:10.679Z,45.00
